sensor_id;sensor_type;location;lat;lon;timestamp;temperature;humidity
63966;DHT22;50151;52.030;5.350;2023-03-01T00:00:00;0.30;99.20
63966;DHT22;50151;52.030;5.350;2023-03-01T00:02:27;0.30;99.10
63966;DHT22;50151;52.030;5.350;2023-03-01T00:04:54;0.30;99.20
63966;DHT22;50151;52.030;5.350;2023-03-01T00:07:21;0.30;99.60
63966;DHT22;50151;52.030;5.350;2023-03-01T00:09:47;0.20;99.10
63966;DHT22;50151;52.030;5.350;2023-03-01T00:12:14;0.30;99.50
63966;DHT22;50151;52.030;5.350;2023-03-01T00:14:40;0.20;99.10
63966;DHT22;50151;52.030;5.350;2023-03-01T00:17:07;0.20;99.20
63966;DHT22;50151;52.030;5.350;2023-03-01T00:19:34;0.20;99.30
63966;DHT22;50151;52.030;5.350;2023-03-01T00:22:01;0.10;98.80
63966;DHT22;50151;52.030;5.350;2023-03-01T00:24:28;0.10;99.30
63966;DHT22;50151;52.030;5.350;2023-03-01T00:26:55;0.10;99.50
63966;DHT22;50151;52.030;5.350;2023-03-01T00:29:25;0.10;99.60
63966;DHT22;50151;52.030;5.350;2023-03-01T00:31:51;0.10;99.90
63966;DHT22;50151;52.030;5.350;2023-03-01T00:34:18;0.10;99.70
63966;DHT22;50151;52.030;5.350;2023-03-01T00:36:45;0.00;99.80
63966;DHT22;50151;52.030;5.350;2023-03-01T00:39:14;0.00;99.90
63966;DHT22;50151;52.030;5.350;2023-03-01T00:41:41;0.00;99.90
63966;DHT22;50151;52.030;5.350;2023-03-01T00:44:09;0.00;99.90
63966;DHT22;50151;52.030;5.350;2023-03-01T00:46:36;0.00;99.90
63966;DHT22;50151;52.030;5.350;2023-03-01T00:49:03;0.00;99.90
63966;DHT22;50151;52.030;5.350;2023-03-01T00:51:31;0.00;99.90
63966;DHT22;50151;52.030;5.350;2023-03-01T00:54:00;0.00;99.90
63966;DHT22;50151;52.030;5.350;2023-03-01T00:56:28;0.00;99.90
63966;DHT22;50151;52.030;5.350;2023-03-01T00:58:55;0.00;99.90
63966;DHT22;50151;52.030;5.350;2023-03-01T01:01:25;0.00;99.90
63966;DHT22;50151;52.030;5.350;2023-03-01T01:03:57;0.00;99.90
63966;DHT22;50151;52.030;5.350;2023-03-01T01:06:26;-0.10;99.90
63966;DHT22;50151;52.030;5.350;2023-03-01T01:08:54;-0.10;99.90
63966;DHT22;50151;52.030;5.350;2023-03-01T01:11:22;-0.10;99.90
63966;DHT22;50151;52.030;5.350;2023-03-01T01:13:49;-0.10;99.90
63966;DHT22;50151;52.030;5.350;2023-03-01T01:16:18;0.00;99.90
63966;DHT22;50151;52.030;5.350;2023-03-01T01:18:45;0.00;99.90
63966;DHT22;50151;52.030;5.350;2023-03-01T01:21:14;0.00;99.90
63966;DHT22;50151;52.030;5.350;2023-03-01T01:23:43;0.10;99.90
63966;DHT22;50151;52.030;5.350;2023-03-01T01:26:13;0.10;99.90
63966;DHT22;50151;52.030;5.350;2023-03-01T01:28:40;0.10;99.90
63966;DHT22;50151;52.030;5.350;2023-03-01T01:31:07;0.10;99.90
63966;DHT22;50151;52.030;5.350;2023-03-01T01:33:34;0.10;99.90
63966;DHT22;50151;52.030;5.350;2023-03-01T01:36:01;0.10;99.90
63966;DHT22;50151;52.030;5.350;2023-03-01T01:38:28;0.10;99.90
63966;DHT22;50151;52.030;5.350;2023-03-01T01:40:55;0.10;99.90
63966;DHT22;50151;52.030;5.350;2023-03-01T01:45:58;0.10;99.90
63966;DHT22;50151;52.030;5.350;2023-03-01T01:48:32;0.10;99.90
63966;DHT22;50151;52.030;5.350;2023-03-01T01:51:10;0.10;99.90
63966;DHT22;50151;52.030;5.350;2023-03-01T01:53:38;0.10;99.90
63966;DHT22;50151;52.030;5.350;2023-03-01T01:56:08;0.10;99.90
63966;DHT22;50151;52.030;5.350;2023-03-01T01:58:36;0.10;99.90
63966;DHT22;50151;52.030;5.350;2023-03-01T02:01:03;0.10;99.90
63966;DHT22;50151;52.030;5.350;2023-03-01T02:03:33;0.10;99.90
63966;DHT22;50151;52.030;5.350;2023-03-01T02:06:12;0.00;99.90
63966;DHT22;50151;52.030;5.350;2023-03-01T02:08:41;0.00;99.90
63966;DHT22;50151;52.030;5.350;2023-03-01T02:11:10;0.10;99.90
63966;DHT22;50151;52.030;5.350;2023-03-01T02:13:37;0.00;99.90
63966;DHT22;50151;52.030;5.350;2023-03-01T02:16:08;0.10;99.90
63966;DHT22;50151;52.030;5.350;2023-03-01T02:18:36;0.10;99.90
63966;DHT22;50151;52.030;5.350;2023-03-01T02:21:22;0.10;99.90
63966;DHT22;50151;52.030;5.350;2023-03-01T02:23:51;0.10;99.90
63966;DHT22;50151;52.030;5.350;2023-03-01T02:28:58;0.00;99.90
63966;DHT22;50151;52.030;5.350;2023-03-01T02:31:25;0.10;99.90
63966;DHT22;50151;52.030;5.350;2023-03-01T02:34:14;0.00;99.90
63966;DHT22;50151;52.030;5.350;2023-03-01T02:36:53;0.00;99.90
63966;DHT22;50151;52.030;5.350;2023-03-01T02:39:28;0.00;99.90
63966;DHT22;50151;52.030;5.350;2023-03-01T02:41:57;0.00;99.90
63966;DHT22;50151;52.030;5.350;2023-03-01T02:44:25;0.00;99.90
63966;DHT22;50151;52.030;5.350;2023-03-01T02:46:55;-0.10;99.90
63966;DHT22;50151;52.030;5.350;2023-03-01T02:49:28;0.00;99.90
63966;DHT22;50151;52.030;5.350;2023-03-01T02:54:41;-0.10;99.90
63966;DHT22;50151;52.030;5.350;2023-03-01T02:57:11;0.00;99.90
63966;DHT22;50151;52.030;5.350;2023-03-01T02:59:38;-0.10;99.90
63966;DHT22;50151;52.030;5.350;2023-03-01T03:02:29;-0.10;99.90
63966;DHT22;50151;52.030;5.350;2023-03-01T03:05:09;-0.20;99.90
63966;DHT22;50151;52.030;5.350;2023-03-01T03:07:39;-0.20;99.90
63966;DHT22;50151;52.030;5.350;2023-03-01T03:10:12;-0.20;99.90
63966;DHT22;50151;52.030;5.350;2023-03-01T03:12:39;-0.10;99.90
63966;DHT22;50151;52.030;5.350;2023-03-01T03:15:08;-0.20;99.90
63966;DHT22;50151;52.030;5.350;2023-03-01T03:17:37;-0.30;99.90
63966;DHT22;50151;52.030;5.350;2023-03-01T03:20:05;-0.40;99.90
63966;DHT22;50151;52.030;5.350;2023-03-01T03:22:32;-0.40;99.90
63966;DHT22;50151;52.030;5.350;2023-03-01T03:25:00;-0.40;99.90
63966;DHT22;50151;52.030;5.350;2023-03-01T03:27:27;-0.40;99.90
63966;DHT22;50151;52.030;5.350;2023-03-01T03:29:54;-0.50;99.90
63966;DHT22;50151;52.030;5.350;2023-03-01T03:32:21;-0.50;99.90
63966;DHT22;50151;52.030;5.350;2023-03-01T03:34:48;-0.50;99.90
63966;DHT22;50151;52.030;5.350;2023-03-01T03:37:15;-0.60;99.90
63966;DHT22;50151;52.030;5.350;2023-03-01T03:40:01;-0.60;99.90
63966;DHT22;50151;52.030;5.350;2023-03-01T03:42:27;-0.60;99.90
63966;DHT22;50151;52.030;5.350;2023-03-01T03:44:54;-0.60;99.90
63966;DHT22;50151;52.030;5.350;2023-03-01T03:47:21;-0.60;99.90
63966;DHT22;50151;52.030;5.350;2023-03-01T03:49:47;-0.70;99.90
63966;DHT22;50151;52.030;5.350;2023-03-01T03:52:14;-0.80;99.90
63966;DHT22;50151;52.030;5.350;2023-03-01T03:54:40;-0.80;99.90
63966;DHT22;50151;52.030;5.350;2023-03-01T03:57:07;-0.80;99.90
63966;DHT22;50151;52.030;5.350;2023-03-01T03:59:34;-0.80;99.90
63966;DHT22;50151;52.030;5.350;2023-03-01T04:02:00;-0.80;99.90
63966;DHT22;50151;52.030;5.350;2023-03-01T04:04:27;-0.90;99.90
63966;DHT22;50151;52.030;5.350;2023-03-01T04:06:54;-0.90;99.90
63966;DHT22;50151;52.030;5.350;2023-03-01T04:09:20;-0.90;99.90
63966;DHT22;50151;52.030;5.350;2023-03-01T04:11:47;-0.90;99.90
63966;DHT22;50151;52.030;5.350;2023-03-01T04:14:14;-0.90;99.90
63966;DHT22;50151;52.030;5.350;2023-03-01T04:16:40;-0.90;99.90
63966;DHT22;50151;52.030;5.350;2023-03-01T04:19:07;-0.90;99.90
63966;DHT22;50151;52.030;5.350;2023-03-01T04:21:35;-1.00;99.90
63966;DHT22;50151;52.030;5.350;2023-03-01T04:24:03;-1.00;99.90
63966;DHT22;50151;52.030;5.350;2023-03-01T04:26:30;-1.00;99.90
63966;DHT22;50151;52.030;5.350;2023-03-01T04:28:57;-1.00;99.90
63966;DHT22;50151;52.030;5.350;2023-03-01T04:31:23;-1.00;99.90
63966;DHT22;50151;52.030;5.350;2023-03-01T04:33:52;-1.00;99.90
63966;DHT22;50151;52.030;5.350;2023-03-01T04:36:21;-1.10;99.90
63966;DHT22;50151;52.030;5.350;2023-03-01T04:38:49;-1.10;99.90
63966;DHT22;50151;52.030;5.350;2023-03-01T04:41:18;-1.10;99.90
63966;DHT22;50151;52.030;5.350;2023-03-01T04:43:45;-1.10;99.90
63966;DHT22;50151;52.030;5.350;2023-03-01T04:46:15;-1.10;99.90
63966;DHT22;50151;52.030;5.350;2023-03-01T04:48:43;-1.10;99.90
63966;DHT22;50151;52.030;5.350;2023-03-01T04:51:11;-1.10;99.90
63966;DHT22;50151;52.030;5.350;2023-03-01T04:53:43;-1.10;99.90
63966;DHT22;50151;52.030;5.350;2023-03-01T04:56:10;-1.10;99.90
63966;DHT22;50151;52.030;5.350;2023-03-01T04:58:37;-1.10;99.90
63966;DHT22;50151;52.030;5.350;2023-03-01T05:01:16;-1.10;99.90
63966;DHT22;50151;52.030;5.350;2023-03-01T05:03:45;-1.20;99.90
63966;DHT22;50151;52.030;5.350;2023-03-01T05:06:13;-1.20;99.90
63966;DHT22;50151;52.030;5.350;2023-03-01T05:08:40;-1.20;99.90
63966;DHT22;50151;52.030;5.350;2023-03-01T05:11:08;-1.20;99.90
63966;DHT22;50151;52.030;5.350;2023-03-01T05:13:36;-1.20;99.90
63966;DHT22;50151;52.030;5.350;2023-03-01T05:16:05;-1.20;99.90
63966;DHT22;50151;52.030;5.350;2023-03-01T05:18:33;-1.30;99.90
63966;DHT22;50151;52.030;5.350;2023-03-01T05:21:07;-1.30;99.90
63966;DHT22;50151;52.030;5.350;2023-03-01T05:23:34;-1.20;99.90
63966;DHT22;50151;52.030;5.350;2023-03-01T05:26:02;-1.20;99.90
63966;DHT22;50151;52.030;5.350;2023-03-01T05:28:32;-1.20;99.90
63966;DHT22;50151;52.030;5.350;2023-03-01T05:30:59;-1.20;99.90
63966;DHT22;50151;52.030;5.350;2023-03-01T05:33:26;-1.20;99.90
63966;DHT22;50151;52.030;5.350;2023-03-01T05:35:53;-1.20;99.90
63966;DHT22;50151;52.030;5.350;2023-03-01T05:38:21;-1.30;99.90
63966;DHT22;50151;52.030;5.350;2023-03-01T05:40:49;-1.30;99.90
63966;DHT22;50151;52.030;5.350;2023-03-01T05:43:16;-1.30;99.90
63966;DHT22;50151;52.030;5.350;2023-03-01T05:45:45;-1.30;99.90
63966;DHT22;50151;52.030;5.350;2023-03-01T05:48:12;-1.30;99.90
63966;DHT22;50151;52.030;5.350;2023-03-01T05:50:44;-1.40;99.90
63966;DHT22;50151;52.030;5.350;2023-03-01T05:53:16;-1.30;99.90
63966;DHT22;50151;52.030;5.350;2023-03-01T05:55:43;-1.30;99.90
63966;DHT22;50151;52.030;5.350;2023-03-01T05:58:14;-1.40;99.90
63966;DHT22;50151;52.030;5.350;2023-03-01T06:00:42;-1.40;99.90
63966;DHT22;50151;52.030;5.350;2023-03-01T06:03:11;-1.30;99.90
63966;DHT22;50151;52.030;5.350;2023-03-01T06:05:38;-1.30;99.90
63966;DHT22;50151;52.030;5.350;2023-03-01T06:08:06;-1.30;99.90
63966;DHT22;50151;52.030;5.350;2023-03-01T06:10:32;-1.30;99.90
63966;DHT22;50151;52.030;5.350;2023-03-01T06:12:59;-1.30;99.90
63966;DHT22;50151;52.030;5.350;2023-03-01T06:15:26;-1.30;99.90
63966;DHT22;50151;52.030;5.350;2023-03-01T06:17:54;-1.30;99.90
63966;DHT22;50151;52.030;5.350;2023-03-01T06:20:27;-1.30;99.90
63966;DHT22;50151;52.030;5.350;2023-03-01T06:22:54;-1.30;99.90
63966;DHT22;50151;52.030;5.350;2023-03-01T06:25:24;-1.30;99.90
63966;DHT22;50151;52.030;5.350;2023-03-01T06:27:51;-1.30;99.90
63966;DHT22;50151;52.030;5.350;2023-03-01T06:30:20;-1.30;99.90
63966;DHT22;50151;52.030;5.350;2023-03-01T06:32:48;-1.30;99.90
63966;DHT22;50151;52.030;5.350;2023-03-01T06:35:16;-1.30;99.90
63966;DHT22;50151;52.030;5.350;2023-03-01T06:37:47;-1.30;99.90
63966;DHT22;50151;52.030;5.350;2023-03-01T06:40:14;-1.30;99.90
63966;DHT22;50151;52.030;5.350;2023-03-01T06:42:43;-1.30;99.90
63966;DHT22;50151;52.030;5.350;2023-03-01T06:45:13;-1.30;99.90
63966;DHT22;50151;52.030;5.350;2023-03-01T06:47:40;-1.30;99.90
63966;DHT22;50151;52.030;5.350;2023-03-01T06:50:07;-1.30;99.90
63966;DHT22;50151;52.030;5.350;2023-03-01T06:52:34;-1.30;99.90
63966;DHT22;50151;52.030;5.350;2023-03-01T06:55:01;-1.30;99.90
63966;DHT22;50151;52.030;5.350;2023-03-01T06:57:28;-1.30;99.90
63966;DHT22;50151;52.030;5.350;2023-03-01T06:59:54;-1.20;99.90
63966;DHT22;50151;52.030;5.350;2023-03-01T07:02:21;-1.20;99.90
63966;DHT22;50151;52.030;5.350;2023-03-01T07:04:49;-1.20;99.90
63966;DHT22;50151;52.030;5.350;2023-03-01T07:07:17;-1.20;99.90
63966;DHT22;50151;52.030;5.350;2023-03-01T07:09:45;-1.10;99.90
63966;DHT22;50151;52.030;5.350;2023-03-01T07:12:12;-1.20;99.90
63966;DHT22;50151;52.030;5.350;2023-03-01T07:14:38;-1.20;99.90
63966;DHT22;50151;52.030;5.350;2023-03-01T07:17:05;-1.10;99.90
63966;DHT22;50151;52.030;5.350;2023-03-01T07:19:33;-1.10;99.90
63966;DHT22;50151;52.030;5.350;2023-03-01T07:21:59;-1.10;99.90
63966;DHT22;50151;52.030;5.350;2023-03-01T07:24:26;-1.10;99.90
63966;DHT22;50151;52.030;5.350;2023-03-01T07:26:53;-1.10;99.90
63966;DHT22;50151;52.030;5.350;2023-03-01T07:29:20;-1.00;99.90
63966;DHT22;50151;52.030;5.350;2023-03-01T07:31:47;-0.90;99.90
63966;DHT22;50151;52.030;5.350;2023-03-01T07:34:13;-0.90;99.90
63966;DHT22;50151;52.030;5.350;2023-03-01T07:36:40;-0.90;99.90
63966;DHT22;50151;52.030;5.350;2023-03-01T07:39:10;-0.80;99.90
63966;DHT22;50151;52.030;5.350;2023-03-01T07:41:37;-0.80;99.90
63966;DHT22;50151;52.030;5.350;2023-03-01T07:44:04;-0.70;99.90
63966;DHT22;50151;52.030;5.350;2023-03-01T07:46:31;-0.70;99.90
63966;DHT22;50151;52.030;5.350;2023-03-01T07:48:58;-0.70;99.90
63966;DHT22;50151;52.030;5.350;2023-03-01T07:51:25;-0.60;99.90
63966;DHT22;50151;52.030;5.350;2023-03-01T07:53:51;-0.50;99.90
63966;DHT22;50151;52.030;5.350;2023-03-01T07:56:18;-0.40;99.90
63966;DHT22;50151;52.030;5.350;2023-03-01T07:58:46;-0.30;99.90
63966;DHT22;50151;52.030;5.350;2023-03-01T08:01:18;-0.30;99.90
63966;DHT22;50151;52.030;5.350;2023-03-01T08:03:45;-0.20;99.90
63966;DHT22;50151;52.030;5.350;2023-03-01T08:06:14;-0.20;99.90
63966;DHT22;50151;52.030;5.350;2023-03-01T08:08:41;-0.10;99.90
63966;DHT22;50151;52.030;5.350;2023-03-01T08:11:11;-0.10;99.90
63966;DHT22;50151;52.030;5.350;2023-03-01T08:13:38;0.00;99.90
63966;DHT22;50151;52.030;5.350;2023-03-01T08:16:11;0.10;99.90
63966;DHT22;50151;52.030;5.350;2023-03-01T08:18:38;0.20;99.90
63966;DHT22;50151;52.030;5.350;2023-03-01T08:21:10;0.20;99.90
63966;DHT22;50151;52.030;5.350;2023-03-01T08:23:38;0.30;99.90
63966;DHT22;50151;52.030;5.350;2023-03-01T08:26:17;0.40;99.90
63966;DHT22;50151;52.030;5.350;2023-03-01T08:28:45;0.50;99.90
63966;DHT22;50151;52.030;5.350;2023-03-01T08:31:19;0.60;99.90
63966;DHT22;50151;52.030;5.350;2023-03-01T08:33:48;0.60;99.90
63966;DHT22;50151;52.030;5.350;2023-03-01T08:36:17;0.70;99.90
63966;DHT22;50151;52.030;5.350;2023-03-01T08:38:44;0.80;99.70
63966;DHT22;50151;52.030;5.350;2023-03-01T08:41:12;0.90;99.50
63966;DHT22;50151;52.030;5.350;2023-03-01T08:43:39;1.10;98.90
63966;DHT22;50151;52.030;5.350;2023-03-01T08:46:05;1.10;99.60
63966;DHT22;50151;52.030;5.350;2023-03-01T08:48:33;1.20;98.90
63966;DHT22;50151;52.030;5.350;2023-03-01T08:51:13;1.20;98.20
63966;DHT22;50151;52.030;5.350;2023-03-01T08:53:41;1.30;98.10
63966;DHT22;50151;52.030;5.350;2023-03-01T08:56:09;1.40;97.50
63966;DHT22;50151;52.030;5.350;2023-03-01T08:58:37;1.50;97.50
63966;DHT22;50151;52.030;5.350;2023-03-01T09:01:11;1.60;97.00
63966;DHT22;50151;52.030;5.350;2023-03-01T09:03:38;1.70;96.90
63966;DHT22;50151;52.030;5.350;2023-03-01T09:06:06;1.80;96.20
63966;DHT22;50151;52.030;5.350;2023-03-01T09:08:39;1.80;95.40
63966;DHT22;50151;52.030;5.350;2023-03-01T09:11:09;1.90;95.00
63966;DHT22;50151;52.030;5.350;2023-03-01T09:13:36;2.00;95.30
63966;DHT22;50151;52.030;5.350;2023-03-01T09:16:04;2.10;94.80
63966;DHT22;50151;52.030;5.350;2023-03-01T09:18:32;2.20;94.00
63966;DHT22;50151;52.030;5.350;2023-03-01T09:21:20;2.30;93.80
63966;DHT22;50151;52.030;5.350;2023-03-01T09:24:04;2.30;93.10
63966;DHT22;50151;52.030;5.350;2023-03-01T09:26:31;2.40;94.00
63966;DHT22;50151;52.030;5.350;2023-03-01T09:28:58;2.50;93.50
63966;DHT22;50151;52.030;5.350;2023-03-01T09:31:25;2.50;92.40
63966;DHT22;50151;52.030;5.350;2023-03-01T09:33:53;2.60;92.80
63966;DHT22;50151;52.030;5.350;2023-03-01T09:36:22;2.70;92.80
63966;DHT22;50151;52.030;5.350;2023-03-01T09:38:50;2.80;91.40
63966;DHT22;50151;52.030;5.350;2023-03-01T09:41:26;3.00;91.00
63966;DHT22;50151;52.030;5.350;2023-03-01T09:44:10;3.00;92.00
63966;DHT22;50151;52.030;5.350;2023-03-01T09:46:42;3.20;88.70
63966;DHT22;50151;52.030;5.350;2023-03-01T09:49:17;3.30;86.50
63966;DHT22;50151;52.030;5.350;2023-03-01T09:54:27;3.30;83.00
63966;DHT22;50151;52.030;5.350;2023-03-01T09:57:11;3.40;82.70
63966;DHT22;50151;52.030;5.350;2023-03-01T10:02:57;3.60;73.30
63966;DHT22;50151;52.030;5.350;2023-03-01T10:05:31;3.70;73.90
63966;DHT22;50151;52.030;5.350;2023-03-01T10:08:29;3.80;70.30
63966;DHT22;50151;52.030;5.350;2023-03-01T10:11:00;3.90;70.80
63966;DHT22;50151;52.030;5.350;2023-03-01T10:13:42;4.10;71.10
63966;DHT22;50151;52.030;5.350;2023-03-01T10:16:18;4.10;69.50
63966;DHT22;50151;52.030;5.350;2023-03-01T10:18:53;4.20;70.00
63966;DHT22;50151;52.030;5.350;2023-03-01T10:21:21;4.30;68.70
63966;DHT22;50151;52.030;5.350;2023-03-01T10:23:50;4.30;65.90
63966;DHT22;50151;52.030;5.350;2023-03-01T10:29:12;4.50;66.70
63966;DHT22;50151;52.030;5.350;2023-03-01T10:31:50;4.60;63.80
63966;DHT22;50151;52.030;5.350;2023-03-01T10:34:20;4.70;65.40
63966;DHT22;50151;52.030;5.350;2023-03-01T10:36:51;4.80;66.10
63966;DHT22;50151;52.030;5.350;2023-03-01T10:39:21;4.80;65.00
63966;DHT22;50151;52.030;5.350;2023-03-01T10:42:03;4.90;66.00
63966;DHT22;50151;52.030;5.350;2023-03-01T10:44:45;4.90;63.60
63966;DHT22;50151;52.030;5.350;2023-03-01T10:49:56;5.10;62.00
63966;DHT22;50151;52.030;5.350;2023-03-01T10:52:29;5.30;61.50
63966;DHT22;50151;52.030;5.350;2023-03-01T10:55:22;5.40;61.50
63966;DHT22;50151;52.030;5.350;2023-03-01T10:57:48;5.40;59.60
63966;DHT22;50151;52.030;5.350;2023-03-01T11:00:23;5.30;59.00
63966;DHT22;50151;52.030;5.350;2023-03-01T11:05:26;5.50;58.10
63966;DHT22;50151;52.030;5.350;2023-03-01T11:07:58;5.70;58.80
63966;DHT22;50151;52.030;5.350;2023-03-01T11:10:33;5.70;55.50
63966;DHT22;50151;52.030;5.350;2023-03-01T11:13:18;5.70;54.40
63966;DHT22;50151;52.030;5.350;2023-03-01T11:16:02;5.70;53.50
63966;DHT22;50151;52.030;5.350;2023-03-01T11:18:31;5.80;52.50
63966;DHT22;50151;52.030;5.350;2023-03-01T11:21:13;5.90;52.80
63966;DHT22;50151;52.030;5.350;2023-03-01T11:23:39;6.00;52.70
63966;DHT22;50151;52.030;5.350;2023-03-01T11:26:09;6.10;51.80
63966;DHT22;50151;52.030;5.350;2023-03-01T11:28:40;6.20;51.00
63966;DHT22;50151;52.030;5.350;2023-03-01T11:31:10;6.40;50.80
63966;DHT22;50151;52.030;5.350;2023-03-01T11:36:34;6.50;51.60
63966;DHT22;50151;52.030;5.350;2023-03-01T11:42:25;6.60;50.10
63966;DHT22;50151;52.030;5.350;2023-03-01T11:44:55;6.70;49.80
63966;DHT22;50151;52.030;5.350;2023-03-01T11:47:48;6.80;49.00
63966;DHT22;50151;52.030;5.350;2023-03-01T11:50:47;7.00;49.60
63966;DHT22;50151;52.030;5.350;2023-03-01T12:01:49;7.30;48.30
63966;DHT22;50151;52.030;5.350;2023-03-01T12:13:22;7.60;47.60
63966;DHT22;50151;52.030;5.350;2023-03-01T12:22:44;7.60;46.70
63966;DHT22;50151;52.030;5.350;2023-03-01T12:25:39;7.70;46.80
63966;DHT22;50151;52.030;5.350;2023-03-01T12:31:42;7.90;45.40
63966;DHT22;50151;52.030;5.350;2023-03-01T12:45:40;8.40;43.70
63966;DHT22;50151;52.030;5.350;2023-03-01T12:50:53;8.30;42.60
63966;DHT22;50151;52.030;5.350;2023-03-01T12:53:25;8.40;42.90
63966;DHT22;50151;52.030;5.350;2023-03-01T12:56:02;8.40;42.80
63966;DHT22;50151;52.030;5.350;2023-03-01T12:59:05;8.90;42.70
63966;DHT22;50151;52.030;5.350;2023-03-01T13:01:36;8.90;41.80
63966;DHT22;50151;52.030;5.350;2023-03-01T13:04:38;9.60;42.70
63966;DHT22;50151;52.030;5.350;2023-03-01T13:12:46;10.10;39.00
63966;DHT22;50151;52.030;5.350;2023-03-01T13:17:51;10.40;39.80
63966;DHT22;50151;52.030;5.350;2023-03-01T13:20:21;10.70;39.60
63966;DHT22;50151;52.030;5.350;2023-03-01T13:23:00;10.70;38.50
63966;DHT22;50151;52.030;5.350;2023-03-01T13:25:28;10.40;38.70
63966;DHT22;50151;52.030;5.350;2023-03-01T13:30:58;10.80;39.10
63966;DHT22;50151;52.030;5.350;2023-03-01T13:35:56;11.10;37.90
63966;DHT22;50151;52.030;5.350;2023-03-01T13:44:36;11.00;37.60
63966;DHT22;50151;52.030;5.350;2023-03-01T13:50:01;11.60;37.10
63966;DHT22;50151;52.030;5.350;2023-03-01T13:55:46;11.60;37.60
63966;DHT22;50151;52.030;5.350;2023-03-01T13:58:23;12.00;36.60
63966;DHT22;50151;52.030;5.350;2023-03-01T14:01:06;12.60;36.70
63966;DHT22;50151;52.030;5.350;2023-03-01T14:03:40;12.20;35.50
63966;DHT22;50151;52.030;5.350;2023-03-01T14:06:17;12.40;35.90
63966;DHT22;50151;52.030;5.350;2023-03-01T14:08:49;12.90;35.60
63966;DHT22;50151;52.030;5.350;2023-03-01T14:19:31;13.10;36.30
63966;DHT22;50151;52.030;5.350;2023-03-01T14:22:20;13.10;35.90
63966;DHT22;50151;52.030;5.350;2023-03-01T14:24:51;12.90;35.90
63966;DHT22;50151;52.030;5.350;2023-03-01T14:27:19;12.60;35.40
63966;DHT22;50151;52.030;5.350;2023-03-01T14:30:01;12.90;36.00
63966;DHT22;50151;52.030;5.350;2023-03-01T14:32:31;13.40;35.00
63966;DHT22;50151;52.030;5.350;2023-03-01T14:34:59;13.40;34.40
63966;DHT22;50151;52.030;5.350;2023-03-01T14:37:34;13.70;33.80
63966;DHT22;50151;52.030;5.350;2023-03-01T14:40:02;13.90;34.90
63966;DHT22;50151;52.030;5.350;2023-03-01T14:42:34;14.00;34.40
63966;DHT22;50151;52.030;5.350;2023-03-01T14:45:03;13.30;34.10
63966;DHT22;50151;52.030;5.350;2023-03-01T14:47:34;12.80;33.90
63966;DHT22;50151;52.030;5.350;2023-03-01T14:50:08;13.00;34.10
63966;DHT22;50151;52.030;5.350;2023-03-01T14:52:40;13.40;33.60
63966;DHT22;50151;52.030;5.350;2023-03-01T14:55:20;13.50;34.70
63966;DHT22;50151;52.030;5.350;2023-03-01T14:57:49;13.50;33.60
63966;DHT22;50151;52.030;5.350;2023-03-01T15:00:20;13.20;33.90
63966;DHT22;50151;52.030;5.350;2023-03-01T15:02:48;13.40;34.30
63966;DHT22;50151;52.030;5.350;2023-03-01T15:05:29;13.60;34.30
63966;DHT22;50151;52.030;5.350;2023-03-01T15:08:01;13.50;34.30
63966;DHT22;50151;52.030;5.350;2023-03-01T15:10:33;13.40;36.10
63966;DHT22;50151;52.030;5.350;2023-03-01T15:13:11;13.10;34.50
63966;DHT22;50151;52.030;5.350;2023-03-01T15:15:42;13.70;35.00
63966;DHT22;50151;52.030;5.350;2023-03-01T15:18:17;13.10;34.30
63966;DHT22;50151;52.030;5.350;2023-03-01T15:20:46;13.00;35.00
63966;DHT22;50151;52.030;5.350;2023-03-01T15:23:26;13.20;34.70
63966;DHT22;50151;52.030;5.350;2023-03-01T15:25:54;13.20;34.30
63966;DHT22;50151;52.030;5.350;2023-03-01T15:28:30;13.00;34.40
63966;DHT22;50151;52.030;5.350;2023-03-01T15:31:23;13.10;34.80
63966;DHT22;50151;52.030;5.350;2023-03-01T15:33:51;13.00;34.40
63966;DHT22;50151;52.030;5.350;2023-03-01T15:39:05;12.80;35.20
63966;DHT22;50151;52.030;5.350;2023-03-01T15:41:50;13.10;35.60
63966;DHT22;50151;52.030;5.350;2023-03-01T15:44:28;13.20;36.10
63966;DHT22;50151;52.030;5.350;2023-03-01T15:47:23;12.60;35.90
63966;DHT22;50151;52.030;5.350;2023-03-01T15:49:53;12.50;35.50
63966;DHT22;50151;52.030;5.350;2023-03-01T15:52:47;12.40;36.30
63966;DHT22;50151;52.030;5.350;2023-03-01T15:55:23;12.30;36.20
63966;DHT22;50151;52.030;5.350;2023-03-01T15:58:17;11.50;36.20
63966;DHT22;50151;52.030;5.350;2023-03-01T16:00:45;11.90;36.80
63966;DHT22;50151;52.030;5.350;2023-03-01T16:03:26;12.20;36.10
63966;DHT22;50151;52.030;5.350;2023-03-01T16:05:53;12.10;36.70
63966;DHT22;50151;52.030;5.350;2023-03-01T16:08:20;11.80;37.30
63966;DHT22;50151;52.030;5.350;2023-03-01T16:10:46;11.70;37.80
63966;DHT22;50151;52.030;5.350;2023-03-01T16:13:16;12.00;37.60
63966;DHT22;50151;52.030;5.350;2023-03-01T16:15:44;11.90;38.30
63966;DHT22;50151;52.030;5.350;2023-03-01T16:18:10;11.20;38.20
63966;DHT22;50151;52.030;5.350;2023-03-01T16:20:38;11.10;39.00
63966;DHT22;50151;52.030;5.350;2023-03-01T16:23:07;10.80;39.90
63966;DHT22;50151;52.030;5.350;2023-03-01T16:25:35;10.10;39.90
63966;DHT22;50151;52.030;5.350;2023-03-01T16:28:02;9.90;40.50
63966;DHT22;50151;52.030;5.350;2023-03-01T16:30:35;10.00;41.00
63966;DHT22;50151;52.030;5.350;2023-03-01T16:33:03;9.80;40.90
63966;DHT22;50151;52.030;5.350;2023-03-01T16:35:50;9.70;41.70
63966;DHT22;50151;52.030;5.350;2023-03-01T16:38:17;9.70;41.60
63966;DHT22;50151;52.030;5.350;2023-03-01T16:40:49;9.80;42.00
63966;DHT22;50151;52.030;5.350;2023-03-01T16:43:16;9.60;42.20
63966;DHT22;50151;52.030;5.350;2023-03-01T16:45:42;9.50;42.60
63966;DHT22;50151;52.030;5.350;2023-03-01T16:48:11;9.40;42.90
63966;DHT22;50151;52.030;5.350;2023-03-01T16:50:38;9.30;43.10
63966;DHT22;50151;52.030;5.350;2023-03-01T16:53:05;9.20;43.40
63966;DHT22;50151;52.030;5.350;2023-03-01T16:55:32;9.20;44.00
63966;DHT22;50151;52.030;5.350;2023-03-01T16:57:59;8.90;43.70
63966;DHT22;50151;52.030;5.350;2023-03-01T17:00:26;8.80;44.90
63966;DHT22;50151;52.030;5.350;2023-03-01T17:02:54;8.70;44.70
63966;DHT22;50151;52.030;5.350;2023-03-01T17:05:20;8.60;45.00
63966;DHT22;50151;52.030;5.350;2023-03-01T17:07:50;8.60;45.60
63966;DHT22;50151;52.030;5.350;2023-03-01T17:10:17;8.50;45.10
63966;DHT22;50151;52.030;5.350;2023-03-01T17:12:44;8.40;45.70
63966;DHT22;50151;52.030;5.350;2023-03-01T17:15:11;8.40;45.70
63966;DHT22;50151;52.030;5.350;2023-03-01T17:17:39;8.20;46.50
63966;DHT22;50151;52.030;5.350;2023-03-01T17:20:07;8.20;46.20
63966;DHT22;50151;52.030;5.350;2023-03-01T17:22:33;8.20;47.70
63966;DHT22;50151;52.030;5.350;2023-03-01T17:25:00;8.20;47.00
63966;DHT22;50151;52.030;5.350;2023-03-01T17:27:27;8.10;47.20
63966;DHT22;50151;52.030;5.350;2023-03-01T17:29:54;8.10;47.30
63966;DHT22;50151;52.030;5.350;2023-03-01T17:32:21;7.80;47.70
63966;DHT22;50151;52.030;5.350;2023-03-01T17:34:48;7.70;47.90
63966;DHT22;50151;52.030;5.350;2023-03-01T17:37:15;7.60;48.40
63966;DHT22;50151;52.030;5.350;2023-03-01T17:39:41;7.60;48.90
63966;DHT22;50151;52.030;5.350;2023-03-01T17:42:08;7.50;49.00
63966;DHT22;50151;52.030;5.350;2023-03-01T17:44:35;7.40;49.40